sensor_id;sensor_type;location;lat;lon;timestamp;P1;durP1;ratioP1;P2;durP2;ratioP2
46613;SDS011;32338;50.430;6.806;2022-10-16T00:01:40;1.27;;;1.00;;
46613;SDS011;32338;50.430;6.806;2022-10-16T00:04:08;7.65;;;1.92;;
46613;SDS011;32338;50.430;6.806;2022-10-16T00:06:35;2.05;;;1.05;;
46613;SDS011;32338;50.430;6.806;2022-10-16T00:09:02;1.63;;;1.08;;
46613;SDS011;32338;50.430;6.806;2022-10-16T00:11:30;1.40;;;0.90;;
46613;SDS011;32338;50.430;6.806;2022-10-16T00:14:01;9.50;;;1.00;;
46613;SDS011;32338;50.430;6.806;2022-10-16T00:16:29;3.30;;;0.60;;
46613;SDS011;32338;50.430;6.806;2022-10-16T00:18:56;1.35;;;0.90;;
46613;SDS011;32338;50.430;6.806;2022-10-16T00:21:24;2.53;;;0.98;;
46613;SDS011;32338;50.430;6.806;2022-10-16T00:23:52;1.88;;;0.90;;
46613;SDS011;32338;50.430;6.806;2022-10-16T00:26:19;1.40;;;0.70;;
46613;SDS011;32338;50.430;6.806;2022-10-16T00:28:46;1.98;;;1.00;;
46613;SDS011;32338;50.430;6.806;2022-10-16T00:31:15;1.17;;;0.80;;
46613;SDS011;32338;50.430;6.806;2022-10-16T00:33:43;2.47;;;0.80;;
46613;SDS011;32338;50.430;6.806;2022-10-16T00:36:10;3.95;;;1.80;;
46613;SDS011;32338;50.430;6.806;2022-10-16T00:38:38;2.70;;;0.80;;
46613;SDS011;32338;50.430;6.806;2022-10-16T00:41:06;2.40;;;0.80;;
46613;SDS011;32338;50.430;6.806;2022-10-16T00:43:37;1.60;;;0.75;;
46613;SDS011;32338;50.430;6.806;2022-10-16T00:46:08;4.85;;;0.88;;
46613;SDS011;32338;50.430;6.806;2022-10-16T00:48:41;4.50;;;0.90;;
46613;SDS011;32338;50.430;6.806;2022-10-16T00:51:11;2.55;;;0.90;;
46613;SDS011;32338;50.430;6.806;2022-10-16T00:53:38;4.45;;;1.05;;
46613;SDS011;32338;50.430;6.806;2022-10-16T00:56:04;6.28;;;1.10;;
46613;SDS011;32338;50.430;6.806;2022-10-16T00:58:31;4.40;;;1.13;;
46613;SDS011;32338;50.430;6.806;2022-10-16T01:00:58;2.58;;;1.00;;
46613;SDS011;32338;50.430;6.806;2022-10-16T01:03:26;1.85;;;0.90;;
46613;SDS011;32338;50.430;6.806;2022-10-16T01:05:59;4.03;;;0.95;;
46613;SDS011;32338;50.430;6.806;2022-10-16T01:08:37;2.22;;;1.17;;
46613;SDS011;32338;50.430;6.806;2022-10-16T01:11:11;2.15;;;1.55;;
46613;SDS011;32338;50.430;6.806;2022-10-16T01:13:46;3.45;;;1.40;;
46613;SDS011;32338;50.430;6.806;2022-10-16T01:16:17;3.15;;;1.50;;
46613;SDS011;32338;50.430;6.806;2022-10-16T01:18:52;2.63;;;1.23;;
46613;SDS011;32338;50.430;6.806;2022-10-16T01:21:26;5.45;;;1.40;;
46613;SDS011;32338;50.430;6.806;2022-10-16T01:23:58;2.75;;;1.50;;
46613;SDS011;32338;50.430;6.806;2022-10-16T01:26:36;1.38;;;1.27;;
46613;SDS011;32338;50.430;6.806;2022-10-16T01:29:18;2.17;;;1.00;;
46613;SDS011;32338;50.430;6.806;2022-10-16T01:31:50;2.83;;;1.10;;
46613;SDS011;32338;50.430;6.806;2022-10-16T01:34:25;2.45;;;0.90;;
46613;SDS011;32338;50.430;6.806;2022-10-16T01:37:00;3.90;;;1.33;;
46613;SDS011;32338;50.430;6.806;2022-10-16T01:39:31;5.10;;;1.25;;
46613;SDS011;32338;50.430;6.806;2022-10-16T01:42:03;4.88;;;1.85;;
46613;SDS011;32338;50.430;6.806;2022-10-16T01:44:35;2.78;;;1.30;;
46613;SDS011;32338;50.430;6.806;2022-10-16T01:47:05;1.80;;;1.20;;
46613;SDS011;32338;50.430;6.806;2022-10-16T01:49:35;5.65;;;1.50;;
46613;SDS011;32338;50.430;6.806;2022-10-16T01:52:05;3.33;;;1.35;;
46613;SDS011;32338;50.430;6.806;2022-10-16T01:54:36;4.82;;;1.05;;
46613;SDS011;32338;50.430;6.806;2022-10-16T01:57:06;3.08;;;1.40;;
46613;SDS011;32338;50.430;6.806;2022-10-16T01:59:37;1.42;;;1.30;;
46613;SDS011;32338;50.430;6.806;2022-10-16T02:02:09;1.65;;;1.08;;
46613;SDS011;32338;50.430;6.806;2022-10-16T02:04:38;1.67;;;1.02;;
46613;SDS011;32338;50.430;6.806;2022-10-16T02:07:08;4.20;;;1.40;;
46613;SDS011;32338;50.430;6.806;2022-10-16T02:09:35;3.22;;;1.23;;
46613;SDS011;32338;50.430;6.806;2022-10-16T02:12:03;1.60;;;1.50;;
46613;SDS011;32338;50.430;6.806;2022-10-16T02:14:38;2.22;;;1.08;;
46613;SDS011;32338;50.430;6.806;2022-10-16T02:17:10;7.10;;;1.10;;
46613;SDS011;32338;50.430;6.806;2022-10-16T02:19:37;2.42;;;1.15;;
46613;SDS011;32338;50.430;6.806;2022-10-16T02:22:06;2.05;;;1.10;;
46613;SDS011;32338;50.430;6.806;2022-10-16T02:24:37;2.58;;;1.20;;
46613;SDS011;32338;50.430;6.806;2022-10-16T02:27:10;1.70;;;1.50;;
46613;SDS011;32338;50.430;6.806;2022-10-16T02:29:41;3.80;;;1.35;;
46613;SDS011;32338;50.430;6.806;2022-10-16T02:32:13;1.55;;;1.45;;
46613;SDS011;32338;50.430;6.806;2022-10-16T02:34:44;3.40;;;1.63;;
46613;SDS011;32338;50.430;6.806;2022-10-16T02:37:12;5.30;;;1.38;;
46613;SDS011;32338;50.430;6.806;2022-10-16T02:39:40;1.08;;;0.98;;
46613;SDS011;32338;50.430;6.806;2022-10-16T02:42:09;3.20;;;1.10;;
46613;SDS011;32338;50.430;6.806;2022-10-16T02:44:37;1.80;;;1.02;;
46613;SDS011;32338;50.430;6.806;2022-10-16T02:47:05;2.85;;;1.02;;
46613;SDS011;32338;50.430;6.806;2022-10-16T02:49:32;6.07;;;1.58;;
46613;SDS011;32338;50.430;6.806;2022-10-16T02:51:58;2.70;;;1.42;;
46613;SDS011;32338;50.430;6.806;2022-10-16T02:54:25;3.78;;;1.55;;
46613;SDS011;32338;50.430;6.806;2022-10-16T02:56:51;2.15;;;1.08;;
46613;SDS011;32338;50.430;6.806;2022-10-16T02:59:18;2.67;;;1.90;;
46613;SDS011;32338;50.430;6.806;2022-10-16T03:01:44;4.22;;;2.15;;
46613;SDS011;32338;50.430;6.806;2022-10-16T03:04:12;1.67;;;1.58;;
46613;SDS011;32338;50.430;6.806;2022-10-16T03:06:40;1.80;;;1.42;;
46613;SDS011;32338;50.430;6.806;2022-10-16T03:09:06;2.47;;;1.55;;
46613;SDS011;32338;50.430;6.806;2022-10-16T03:11:33;2.90;;;1.35;;
46613;SDS011;32338;50.430;6.806;2022-10-16T03:13:59;2.75;;;1.45;;
46613;SDS011;32338;50.430;6.806;2022-10-16T03:16:26;1.63;;;1.52;;
46613;SDS011;32338;50.430;6.806;2022-10-16T03:18:53;3.90;;;1.90;;
46613;SDS011;32338;50.430;6.806;2022-10-16T03:21:20;3.75;;;1.88;;
46613;SDS011;32338;50.430;6.806;2022-10-16T03:23:47;6.57;;;1.65;;
46613;SDS011;32338;50.430;6.806;2022-10-16T03:26:14;3.45;;;3.15;;
46613;SDS011;32338;50.430;6.806;2022-10-16T03:28:40;5.80;;;3.90;;
46613;SDS011;32338;50.430;6.806;2022-10-16T03:31:07;4.35;;;3.15;;
46613;SDS011;32338;50.430;6.806;2022-10-16T03:33:34;5.03;;;3.30;;
46613;SDS011;32338;50.430;6.806;2022-10-16T03:36:00;4.45;;;4.05;;
46613;SDS011;32338;50.430;6.806;2022-10-16T03:38:28;5.40;;;4.60;;
46613;SDS011;32338;50.430;6.806;2022-10-16T03:40:55;8.90;;;4.15;;
46613;SDS011;32338;50.430;6.806;2022-10-16T03:43:22;4.78;;;4.35;;
46613;SDS011;32338;50.430;6.806;2022-10-16T03:45:49;7.45;;;4.47;;
46613;SDS011;32338;50.430;6.806;2022-10-16T03:48:16;4.82;;;4.40;;
46613;SDS011;32338;50.430;6.806;2022-10-16T03:50:43;4.80;;;4.50;;
46613;SDS011;32338;50.430;6.806;2022-10-16T03:53:09;6.65;;;4.97;;
46613;SDS011;32338;50.430;6.806;2022-10-16T03:55:37;4.60;;;4.15;;
46613;SDS011;32338;50.430;6.806;2022-10-16T03:58:04;4.97;;;4.45;;
46613;SDS011;32338;50.430;6.806;2022-10-16T04:00:31;6.43;;;4.90;;
46613;SDS011;32338;50.430;6.806;2022-10-16T04:02:57;5.57;;;5.05;;
46613;SDS011;32338;50.430;6.806;2022-10-16T04:05:24;6.10;;;5.43;;
46613;SDS011;32338;50.430;6.806;2022-10-16T04:07:51;6.80;;;5.88;;
46613;SDS011;32338;50.430;6.806;2022-10-16T04:10:17;6.10;;;5.45;;
46613;SDS011;32338;50.430;6.806;2022-10-16T04:12:45;11.82;;;6.38;;
46613;SDS011;32338;50.430;6.806;2022-10-16T04:15:12;5.40;;;5.00;;
46613;SDS011;32338;50.430;6.806;2022-10-16T04:17:39;6.38;;;4.75;;
46613;SDS011;32338;50.430;6.806;2022-10-16T04:20:06;6.55;;;4.68;;
46613;SDS011;32338;50.430;6.806;2022-10-16T04:22:33;7.47;;;4.70;;
46613;SDS011;32338;50.430;6.806;2022-10-16T04:24:59;4.25;;;3.95;;
46613;SDS011;32338;50.430;6.806;2022-10-16T04:27:26;3.95;;;3.65;;
46613;SDS011;32338;50.430;6.806;2022-10-16T04:29:54;7.30;;;4.70;;
46613;SDS011;32338;50.430;6.806;2022-10-16T04:32:21;5.97;;;4.40;;
46613;SDS011;32338;50.430;6.806;2022-10-16T04:34:48;4.93;;;4.53;;
46613;SDS011;32338;50.430;6.806;2022-10-16T04:37:14;4.90;;;4.50;;
46613;SDS011;32338;50.430;6.806;2022-10-16T04:39:41;3.95;;;3.65;;
46613;SDS011;32338;50.430;6.806;2022-10-16T04:42:07;4.78;;;4.13;;
46613;SDS011;32338;50.430;6.806;2022-10-16T04:44:34;4.95;;;4.43;;
46613;SDS011;32338;50.430;6.806;2022-10-16T04:47:02;4.88;;;3.92;;
46613;SDS011;32338;50.430;6.806;2022-10-16T04:49:29;4.28;;;3.92;;
46613;SDS011;32338;50.430;6.806;2022-10-16T04:51:56;4.50;;;4.10;;
46613;SDS011;32338;50.430;6.806;2022-10-16T04:54:22;5.25;;;4.80;;
46613;SDS011;32338;50.430;6.806;2022-10-16T04:56:49;4.68;;;4.28;;
46613;SDS011;32338;50.430;6.806;2022-10-16T04:59:17;4.97;;;3.60;;
46613;SDS011;32338;50.430;6.806;2022-10-16T05:01:44;4.20;;;3.83;;
46613;SDS011;32338;50.430;6.806;2022-10-16T05:04:12;3.80;;;3.50;;
46613;SDS011;32338;50.430;6.806;2022-10-16T05:06:39;3.45;;;3.15;;
46613;SDS011;32338;50.430;6.806;2022-10-16T05:09:07;4.03;;;3.72;;
46613;SDS011;32338;50.430;6.806;2022-10-16T05:11:34;3.22;;;3.00;;
46613;SDS011;32338;50.430;6.806;2022-10-16T05:14:01;3.30;;;2.60;;
46613;SDS011;32338;50.430;6.806;2022-10-16T05:16:28;2.60;;;2.40;;
46613;SDS011;32338;50.430;6.806;2022-10-16T05:18:55;2.55;;;2.33;;
46613;SDS011;32338;50.430;6.806;2022-10-16T05:21:23;2.13;;;2.03;;
46613;SDS011;32338;50.430;6.806;2022-10-16T05:23:49;5.25;;;2.20;;
46613;SDS011;32338;50.430;6.806;2022-10-16T05:26:16;4.63;;;2.05;;
46613;SDS011;32338;50.430;6.806;2022-10-16T05:28:43;4.80;;;2.17;;
46613;SDS011;32338;50.430;6.806;2022-10-16T05:31:09;4.97;;;2.47;;
46613;SDS011;32338;50.430;6.806;2022-10-16T05:33:36;2.70;;;1.80;;
46613;SDS011;32338;50.430;6.806;2022-10-16T05:36:03;4.07;;;2.03;;
46613;SDS011;32338;50.430;6.806;2022-10-16T05:38:33;2.33;;;2.17;;
46613;SDS011;32338;50.430;6.806;2022-10-16T05:41:01;6.43;;;2.15;;
46613;SDS011;32338;50.430;6.806;2022-10-16T05:43:28;3.95;;;1.85;;
46613;SDS011;32338;50.430;6.806;2022-10-16T05:45:55;2.47;;;2.22;;
46613;SDS011;32338;50.430;6.806;2022-10-16T05:48:22;1.77;;;1.67;;
46613;SDS011;32338;50.430;6.806;2022-10-16T05:50:55;2.78;;;2.00;;
46613;SDS011;32338;50.430;6.806;2022-10-16T05:53:23;2.85;;;2.10;;
46613;SDS011;32338;50.430;6.806;2022-10-16T05:55:55;1.92;;;1.60;;
46613;SDS011;32338;50.430;6.806;2022-10-16T05:58:22;2.20;;;1.30;;
46613;SDS011;32338;50.430;6.806;2022-10-16T06:00:55;2.75;;;1.60;;
46613;SDS011;32338;50.430;6.806;2022-10-16T06:03:23;1.77;;;1.38;;
46613;SDS011;32338;50.430;6.806;2022-10-16T06:05:50;2.42;;;1.50;;
46613;SDS011;32338;50.430;6.806;2022-10-16T06:08:17;1.50;;;1.40;;
46613;SDS011;32338;50.430;6.806;2022-10-16T06:10:44;2.80;;;1.38;;
46613;SDS011;32338;50.430;6.806;2022-10-16T06:13:13;2.20;;;1.75;;
46613;SDS011;32338;50.430;6.806;2022-10-16T06:15:40;2.08;;;1.20;;
46613;SDS011;32338;50.430;6.806;2022-10-16T06:18:08;3.08;;;1.23;;
46613;SDS011;32338;50.430;6.806;2022-10-16T06:20:34;0.95;;;0.95;;
46613;SDS011;32338;50.430;6.806;2022-10-16T06:23:01;1.20;;;1.10;;
46613;SDS011;32338;50.430;6.806;2022-10-16T06:25:29;4.43;;;1.10;;
46613;SDS011;32338;50.430;6.806;2022-10-16T06:27:55;4.25;;;0.80;;
46613;SDS011;32338;50.430;6.806;2022-10-16T06:30:23;3.22;;;1.10;;
46613;SDS011;32338;50.430;6.806;2022-10-16T06:32:50;2.63;;;0.90;;
46613;SDS011;32338;50.430;6.806;2022-10-16T06:35:16;3.45;;;1.10;;
46613;SDS011;32338;50.430;6.806;2022-10-16T06:37:43;1.15;;;1.00;;
46613;SDS011;32338;50.430;6.806;2022-10-16T06:40:09;1.33;;;0.68;;
46613;SDS011;32338;50.430;6.806;2022-10-16T06:42:36;0.98;;;0.93;;
46613;SDS011;32338;50.430;6.806;2022-10-16T06:45:03;3.22;;;1.10;;
46613;SDS011;32338;50.430;6.806;2022-10-16T06:47:31;4.22;;;0.75;;
46613;SDS011;32338;50.430;6.806;2022-10-16T06:49:58;3.17;;;0.80;;
46613;SDS011;32338;50.430;6.806;2022-10-16T06:52:24;3.65;;;1.00;;
46613;SDS011;32338;50.430;6.806;2022-10-16T06:54:54;1.50;;;0.80;;
46613;SDS011;32338;50.430;6.806;2022-10-16T06:57:21;2.00;;;0.73;;
46613;SDS011;32338;50.430;6.806;2022-10-16T06:59:47;2.90;;;0.60;;
46613;SDS011;32338;50.430;6.806;2022-10-16T07:02:14;1.52;;;0.80;;
46613;SDS011;32338;50.430;6.806;2022-10-16T07:04:42;0.77;;;0.73;;
46613;SDS011;32338;50.430;6.806;2022-10-16T07:07:08;2.75;;;0.70;;
46613;SDS011;32338;50.430;6.806;2022-10-16T07:09:35;3.97;;;0.93;;
46613;SDS011;32338;50.430;6.806;2022-10-16T07:12:02;0.60;;;0.60;;
46613;SDS011;32338;50.430;6.806;2022-10-16T07:14:28;3.45;;;0.60;;
46613;SDS011;32338;50.430;6.806;2022-10-16T07:16:55;1.10;;;0.60;;
46613;SDS011;32338;50.430;6.806;2022-10-16T07:19:22;2.90;;;0.82;;
46613;SDS011;32338;50.430;6.806;2022-10-16T07:21:51;0.57;;;0.57;;
46613;SDS011;32338;50.430;6.806;2022-10-16T07:24:18;2.92;;;0.63;;
46613;SDS011;32338;50.430;6.806;2022-10-16T07:26:45;3.42;;;0.60;;
46613;SDS011;32338;50.430;6.806;2022-10-16T07:29:12;1.42;;;0.65;;
46613;SDS011;32338;50.430;6.806;2022-10-16T07:31:40;3.17;;;0.60;;
46613;SDS011;32338;50.430;6.806;2022-10-16T07:34:10;2.05;;;0.70;;
46613;SDS011;32338;50.430;6.806;2022-10-16T07:36:38;1.05;;;0.73;;
46613;SDS011;32338;50.430;6.806;2022-10-16T07:39:06;1.55;;;0.45;;
46613;SDS011;32338;50.430;6.806;2022-10-16T07:41:33;1.20;;;0.60;;
46613;SDS011;32338;50.430;6.806;2022-10-16T07:44:02;1.00;;;0.45;;
46613;SDS011;32338;50.430;6.806;2022-10-16T07:46:29;3.15;;;0.50;;
46613;SDS011;32338;50.430;6.806;2022-10-16T07:48:56;2.20;;;0.57;;
46613;SDS011;32338;50.430;6.806;2022-10-16T07:51:23;0.55;;;0.40;;
46613;SDS011;32338;50.430;6.806;2022-10-16T07:53:52;1.25;;;0.50;;
46613;SDS011;32338;50.430;6.806;2022-10-16T07:56:20;3.67;;;0.50;;
46613;SDS011;32338;50.430;6.806;2022-10-16T07:58:47;0.80;;;0.40;;
46613;SDS011;32338;50.430;6.806;2022-10-16T08:01:15;1.95;;;0.60;;
46613;SDS011;32338;50.430;6.806;2022-10-16T08:03:43;1.83;;;0.60;;
46613;SDS011;32338;50.430;6.806;2022-10-16T08:06:11;1.23;;;0.47;;
46613;SDS011;32338;50.430;6.806;2022-10-16T08:08:37;1.02;;;0.60;;
46613;SDS011;32338;50.430;6.806;2022-10-16T08:11:04;1.80;;;0.43;;
46613;SDS011;32338;50.430;6.806;2022-10-16T08:13:32;2.25;;;0.40;;
46613;SDS011;32338;50.430;6.806;2022-10-16T08:15:59;0.68;;;0.40;;
46613;SDS011;32338;50.430;6.806;2022-10-16T08:18:26;1.02;;;0.38;;
46613;SDS011;32338;50.430;6.806;2022-10-16T08:20:56;0.80;;;0.40;;
46613;SDS011;32338;50.430;6.806;2022-10-16T08:23:25;0.68;;;0.40;;
46613;SDS011;32338;50.430;6.806;2022-10-16T08:25:52;0.80;;;0.50;;
46613;SDS011;32338;50.430;6.806;2022-10-16T08:28:19;0.77;;;0.40;;
46613;SDS011;32338;50.430;6.806;2022-10-16T08:30:47;0.77;;;0.40;;
46613;SDS011;32338;50.430;6.806;2022-10-16T08:33:14;1.40;;;0.40;;
46613;SDS011;32338;50.430;6.806;2022-10-16T08:35:41;0.50;;;0.50;;
46613;SDS011;32338;50.430;6.806;2022-10-16T08:38:07;0.63;;;0.40;;
46613;SDS011;32338;50.430;6.806;2022-10-16T08:40:35;2.15;;;0.50;;
46613;SDS011;32338;50.430;6.806;2022-10-16T08:43:07;2.97;;;0.50;;
46613;SDS011;32338;50.430;6.806;2022-10-16T08:45:51;0.75;;;0.55;;
46613;SDS011;32338;50.430;6.806;2022-10-16T08:48:39;1.48;;;0.40;;
46613;SDS011;32338;50.430;6.806;2022-10-16T08:51:11;3.10;;;0.50;;
46613;SDS011;32338;50.430;6.806;2022-10-16T08:53:44;2.35;;;0.60;;
46613;SDS011;32338;50.430;6.806;2022-10-16T08:56:15;5.78;;;0.40;;
46613;SDS011;32338;50.430;6.806;2022-10-16T08:58:43;0.93;;;0.40;;
46613;SDS011;32338;50.430;6.806;2022-10-16T09:01:14;1.20;;;0.40;;
46613;SDS011;32338;50.430;6.806;2022-10-16T09:03:46;0.43;;;0.40;;
46613;SDS011;32338;50.430;6.806;2022-10-16T09:06:35;2.08;;;0.30;;
46613;SDS011;32338;50.430;6.806;2022-10-16T09:09:17;0.25;;;0.25;;
46613;SDS011;32338;50.430;6.806;2022-10-16T09:11:56;1.13;;;0.40;;
46613;SDS011;32338;50.430;6.806;2022-10-16T09:14:38;0.35;;;0.25;;
46613;SDS011;32338;50.430;6.806;2022-10-16T09:17:19;0.38;;;0.20;;
46613;SDS011;32338;50.430;6.806;2022-10-16T09:19:53;5.18;;;0.40;;
46613;SDS011;32338;50.430;6.806;2022-10-16T09:22:30;0.73;;;0.30;;
46613;SDS011;32338;50.430;6.806;2022-10-16T09:24:59;4.45;;;0.20;;
46613;SDS011;32338;50.430;6.806;2022-10-16T09:27:36;0.38;;;0.20;;
46613;SDS011;32338;50.430;6.806;2022-10-16T09:30:09;0.30;;;0.20;;
46613;SDS011;32338;50.430;6.806;2022-10-16T09:32:39;0.98;;;0.30;;
46613;SDS011;32338;50.430;6.806;2022-10-16T09:35:09;2.20;;;0.20;;
46613;SDS011;32338;50.430;6.806;2022-10-16T09:37:39;0.60;;;0.20;;
46613;SDS011;32338;50.430;6.806;2022-10-16T09:40:11;0.20;;;0.20;;
46613;SDS011;32338;50.430;6.806;2022-10-16T09:42:39;3.38;;;0.35;;
46613;SDS011;32338;50.430;6.806;2022-10-16T09:45:19;0.43;;;0.20;;
46613;SDS011;32338;50.430;6.806;2022-10-16T09:47:49;1.25;;;0.63;;
46613;SDS011;32338;50.430;6.806;2022-10-16T09:50:20;1.10;;;0.30;;
46613;SDS011;32338;50.430;6.806;2022-10-16T09:52:48;2.25;;;0.20;;
46613;SDS011;32338;50.430;6.806;2022-10-16T09:55:16;0.40;;;0.17;;
46613;SDS011;32338;50.430;6.806;2022-10-16T09:57:49;0.30;;;0.20;;
46613;SDS011;32338;50.430;6.806;2022-10-16T10:00:17;0.85;;;0.20;;
46613;SDS011;32338;50.430;6.806;2022-10-16T10:02:44;0.40;;;0.10;;
46613;SDS011;32338;50.430;6.806;2022-10-16T10:05:20;0.30;;;0.10;;
46613;SDS011;32338;50.430;6.806;2022-10-16T10:07:53;0.30;;;0.10;;
46613;SDS011;32338;50.430;6.806;2022-10-16T10:10:22;0.50;;;0.20;;
46613;SDS011;32338;50.430;6.806;2022-10-16T10:12:50;1.35;;;0.10;;
46613;SDS011;32338;50.430;6.806;2022-10-16T10:15:17;2.72;;;0.10;;
46613;SDS011;32338;50.430;6.806;2022-10-16T10:17:47;0.52;;;0.30;;
46613;SDS011;32338;50.430;6.806;2022-10-16T10:20:23;0.68;;;0.10;;
46613;SDS011;32338;50.430;6.806;2022-10-16T10:22:52;0.40;;;0.20;;
46613;SDS011;32338;50.430;6.806;2022-10-16T10:25:32;1.55;;;0.28;;
46613;SDS011;32338;50.430;6.806;2022-10-16T10:28:21;1.85;;;0.30;;
46613;SDS011;32338;50.430;6.806;2022-10-16T10:31:17;1.90;;;0.20;;
46613;SDS011;32338;50.430;6.806;2022-10-16T10:33:52;3.10;;;0.10;;
46613;SDS011;32338;50.430;6.806;2022-10-16T10:36:29;3.47;;;0.22;;
46613;SDS011;32338;50.430;6.806;2022-10-16T10:39:00;0.65;;;0.20;;
46613;SDS011;32338;50.430;6.806;2022-10-16T10:44:46;1.20;;;0.10;;
46613;SDS011;32338;50.430;6.806;2022-10-16T10:47:23;0.17;;;0.10;;
46613;SDS011;32338;50.430;6.806;2022-10-16T10:50:02;0.75;;;0.10;;
46613;SDS011;32338;50.430;6.806;2022-10-16T10:52:41;2.08;;;0.13;;
46613;SDS011;32338;50.430;6.806;2022-10-16T10:55:16;3.83;;;0.20;;
46613;SDS011;32338;50.430;6.806;2022-10-16T11:00:53;3.35;;;0.20;;
46613;SDS011;32338;50.430;6.806;2022-10-16T11:03:42;0.93;;;0.22;;
46613;SDS011;32338;50.430;6.806;2022-10-16T11:06:25;0.40;;;0.30;;
46613;SDS011;32338;50.430;6.806;2022-10-16T11:08:58;1.00;;;0.20;;
46613;SDS011;32338;50.430;6.806;2022-10-16T11:11:29;0.98;;;0.38;;
46613;SDS011;32338;50.430;6.806;2022-10-16T11:14:02;2.17;;;0.20;;
46613;SDS011;32338;50.430;6.806;2022-10-16T11:16:34;0.90;;;0.55;;
46613;SDS011;32338;50.430;6.806;2022-10-16T11:19:11;0.70;;;0.15;;
46613;SDS011;32338;50.430;6.806;2022-10-16T11:21:43;1.02;;;0.20;;
46613;SDS011;32338;50.430;6.806;2022-10-16T11:24:18;1.75;;;0.20;;
46613;SDS011;32338;50.430;6.806;2022-10-16T11:26:49;1.85;;;0.20;;
46613;SDS011;32338;50.430;6.806;2022-10-16T11:29:19;0.80;;;0.20;;
46613;SDS011;32338;50.430;6.806;2022-10-16T11:31:52;0.32;;;0.17;;
46613;SDS011;32338;50.430;6.806;2022-10-16T11:34:24;3.30;;;0.20;;
46613;SDS011;32338;50.430;6.806;2022-10-16T11:36:56;1.67;;;0.30;;
46613;SDS011;32338;50.430;6.806;2022-10-16T11:39:27;1.73;;;0.30;;
46613;SDS011;32338;50.430;6.806;2022-10-16T11:41:56;0.47;;;0.10;;
46613;SDS011;32338;50.430;6.806;2022-10-16T11:47:23;1.55;;;0.10;;
46613;SDS011;32338;50.430;6.806;2022-10-16T11:49:56;0.38;;;0.17;;
46613;SDS011;32338;50.430;6.806;2022-10-16T11:52:28;4.05;;;0.20;;
46613;SDS011;32338;50.430;6.806;2022-10-16T11:55:04;3.42;;;0.25;;
46613;SDS011;32338;50.430;6.806;2022-10-16T11:57:39;0.22;;;0.13;;
46613;SDS011;32338;50.430;6.806;2022-10-16T12:00:14;1.05;;;0.20;;
46613;SDS011;32338;50.430;6.806;2022-10-16T12:02:52;2.13;;;0.13;;
46613;SDS011;32338;50.430;6.806;2022-10-16T12:05:26;0.70;;;0.17;;
46613;SDS011;32338;50.430;6.806;2022-10-16T12:08:02;0.82;;;0.15;;
46613;SDS011;32338;50.430;6.806;2022-10-16T12:10:36;1.67;;;0.10;;
46613;SDS011;32338;50.430;6.806;2022-10-16T12:13:03;0.57;;;0.10;;
46613;SDS011;32338;50.430;6.806;2022-10-16T12:15:31;2.38;;;0.10;;
46613;SDS011;32338;50.430;6.806;2022-10-16T12:17:59;0.38;;;0.10;;
46613;SDS011;32338;50.430;6.806;2022-10-16T12:20:27;1.52;;;0.13;;
46613;SDS011;32338;50.430;6.806;2022-10-16T12:22:58;1.48;;;0.10;;
46613;SDS011;32338;50.430;6.806;2022-10-16T12:25:27;2.85;;;0.25;;
46613;SDS011;32338;50.430;6.806;2022-10-16T12:28:01;0.73;;;0.10;;
46613;SDS011;32338;50.430;6.806;2022-10-16T12:30:30;0.40;;;0.20;;
46613;SDS011;32338;50.430;6.806;2022-10-16T12:32:59;1.17;;;0.10;;
46613;SDS011;32338;50.430;6.806;2022-10-16T12:35:30;0.30;;;0.10;;
46613;SDS011;32338;50.430;6.806;2022-10-16T12:38:05;0.63;;;0.20;;
46613;SDS011;32338;50.430;6.806;2022-10-16T12:40:34;1.25;;;0.10;;
46613;SDS011;32338;50.430;6.806;2022-10-16T12:43:23;1.55;;;0.05;;
46613;SDS011;32338;50.430;6.806;2022-10-16T12:45:59;4.53;;;0.10;;
46613;SDS011;32338;50.430;6.806;2022-10-16T12:48:27;0.43;;;0.10;;
46613;SDS011;32338;50.430;6.806;2022-10-16T12:50:55;2.03;;;0.20;;
46613;SDS011;32338;50.430;6.806;2022-10-16T12:53:22;0.35;;;0.10;;
46613;SDS011;32338;50.430;6.806;2022-10-16T12:55:53;1.05;;;0.10;;
46613;SDS011;32338;50.430;6.806;2022-10-16T12:58:34;1.00;;;0.13;;
46613;SDS011;32338;50.430;6.806;2022-10-16T13:01:13;1.67;;;0.17;;
46613;SDS011;32338;50.430;6.806;2022-10-16T13:03:55;0.80;;;0.10;;
46613;SDS011;32338;50.430;6.806;2022-10-16T13:06:36;0.80;;;0.10;;
46613;SDS011;32338;50.430;6.806;2022-10-16T13:09:15;0.10;;;0.00;;
46613;SDS011;32338;50.430;6.806;2022-10-16T13:14:53;0.32;;;0.20;;
46613;SDS011;32338;50.430;6.806;2022-10-16T13:17:35;0.03;;;0.00;;
46613;SDS011;32338;50.430;6.806;2022-10-16T13:20:12;0.10;;;0.05;;
46613;SDS011;32338;50.430;6.806;2022-10-16T13:22:45;0.10;;;0.10;;
46613;SDS011;32338;50.430;6.806;2022-10-16T13:25:22;1.63;;;0.20;;
46613;SDS011;32338;50.430;6.806;2022-10-16T13:27:55;1.50;;;0.25;;
46613;SDS011;32338;50.430;6.806;2022-10-16T13:30:25;0.10;;;0.00;;
46613;SDS011;32338;50.430;6.806;2022-10-16T13:32:55;0.17;;;0.10;;
46613;SDS011;32338;50.430;6.806;2022-10-16T13:35:27;0.47;;;0.47;;
46613;SDS011;32338;50.430;6.806;2022-10-16T13:38:05;1.95;;;0.20;;
46613;SDS011;32338;50.430;6.806;2022-10-16T13:40:47;2.03;;;0.20;;
46613;SDS011;32338;50.430;6.806;2022-10-16T13:43:15;0.75;;;0.20;;
46613;SDS011;32338;50.430;6.806;2022-10-16T13:45:53;0.10;;;0.10;;
46613;SDS011;32338;50.430;6.806;2022-10-16T13:48:21;0.20;;;0.10;;
46613;SDS011;32338;50.430;6.806;2022-10-16T13:50:57;1.05;;;0.10;;
46613;SDS011;32338;50.430;6.806;2022-10-16T13:53:25;0.60;;;0.28;;
46613;SDS011;32338;50.430;6.806;2022-10-16T13:55:52;0.10;;;0.10;;
46613;SDS011;32338;50.430;6.806;2022-10-16T13:58:18;1.48;;;0.10;;
46613;SDS011;32338;50.430;6.806;2022-10-16T14:00:54;2.28;;;0.10;;
46613;SDS011;32338;50.430;6.806;2022-10-16T14:03:23;0.10;;;0.10;;
46613;SDS011;32338;50.430;6.806;2022-10-16T14:05:51;0.10;;;0.10;;
46613;SDS011;32338;50.430;6.806;2022-10-16T14:08:20;2.92;;;0.10;;
46613;SDS011;32338;50.430;6.806;2022-10-16T14:10:48;0.50;;;0.10;;
46613;SDS011;32338;50.430;6.806;2022-10-16T14:13:17;0.57;;;0.13;;
46613;SDS011;32338;50.430;6.806;2022-10-16T14:15:46;2.45;;;0.10;;
46613;SDS011;32338;50.430;6.806;2022-10-16T14:18:19;0.20;;;0.10;;
46613;SDS011;32338;50.430;6.806;2022-10-16T14:20:49;0.10;;;0.10;;
46613;SDS011;32338;50.430;6.806;2022-10-16T14:23:20;0.25;;;0.20;;
46613;SDS011;32338;50.430;6.806;2022-10-16T14:25:49;0.32;;;0.20;;
46613;SDS011;32338;50.430;6.806;2022-10-16T14:28:17;0.45;;;0.00;;
46613;SDS011;32338;50.430;6.806;2022-10-16T14:30:49;0.15;;;0.10;;
46613;SDS011;32338;50.430;6.806;2022-10-16T14:33:22;9.63;;;0.55;;
46613;SDS011;32338;50.430;6.806;2022-10-16T14:35:59;0.25;;;0.05;;
46613;SDS011;32338;50.430;6.806;2022-10-16T14:38:29;0.30;;;0.20;;
46613;SDS011;32338;50.430;6.806;2022-10-16T14:40:56;1.08;;;0.10;;
46613;SDS011;32338;50.430;6.806;2022-10-16T14:43:26;1.17;;;0.13;;
46613;SDS011;32338;50.430;6.806;2022-10-16T14:45:58;0.85;;;0.13;;
46613;SDS011;32338;50.430;6.806;2022-10-16T14:48:27;0.45;;;0.10;;
46613;SDS011;32338;50.430;6.806;2022-10-16T14:50:55;0.93;;;0.30;;
46613;SDS011;32338;50.430;6.806;2022-10-16T14:53:21;2.33;;;0.20;;
46613;SDS011;32338;50.430;6.806;2022-10-16T14:55:48;0.43;;;0.20;;
46613;SDS011;32338;50.430;6.806;2022-10-16T14:58:15;3.10;;;0.20;;
46613;SDS011;32338;50.430;6.806;2022-10-16T15:00:43;0.30;;;0.20;;
46613;SDS011;32338;50.430;6.806;2022-10-16T15:03:10;0.65;;;0.20;;
46613;SDS011;32338;50.430;6.806;2022-10-16T15:05:38;0.22;;;0.20;;
46613;SDS011;32338;50.430;6.806;2022-10-16T15:08:05;3.85;;;0.30;;
46613;SDS011;32338;50.430;6.806;2022-10-16T15:10:32;1.23;;;0.20;;
46613;SDS011;32338;50.430;6.806;2022-10-16T15:13:03;0.30;;;0.20;;
46613;SDS011;32338;50.430;6.806;2022-10-16T15:15:34;2.45;;;0.30;;
46613;SDS011;32338;50.430;6.806;2022-10-16T15:18:03;0.25;;;0.20;;